sensor_id;sensor_type;location;lat;lon;timestamp;pressure;altitude;pressure_sealevel;temperature;humidity
57050;BME280;42935;50.966;16.992;2023-03-25T00:00:07;100478.48;;;8.43;100.00
57050;BME280;42935;50.966;16.992;2023-03-25T00:03:36;100479.44;;;8.48;100.00
57050;BME280;42935;50.966;16.992;2023-03-25T00:06:54;100452.37;;;8.33;100.00
57050;BME280;42935;50.966;16.992;2023-03-25T00:10:10;100439.51;;;8.21;100.00
57050;BME280;42935;50.966;16.992;2023-03-25T00:13:30;100476.10;;;8.42;100.00
57050;BME280;42935;50.966;16.992;2023-03-25T00:16:47;100442.95;;;8.24;100.00
57050;BME280;42935;50.966;16.992;2023-03-25T00:20:08;100454.22;;;8.28;100.00
57050;BME280;42935;50.966;16.992;2023-03-25T00:23:30;100457.71;;;8.23;100.00
57050;BME280;42935;50.966;16.992;2023-03-25T00:26:47;100450.85;;;8.19;100.00
57050;BME280;42935;50.966;16.992;2023-03-25T00:30:05;100447.26;;;8.14;100.00
57050;BME280;42935;50.966;16.992;2023-03-25T00:33:22;100455.34;;;8.13;100.00
57050;BME280;42935;50.966;16.992;2023-03-25T00:36:42;100454.20;;;8.12;100.00
57050;BME280;42935;50.966;16.992;2023-03-25T00:40:00;100431.22;;;7.93;100.00
57050;BME280;42935;50.966;16.992;2023-03-25T00:43:20;100462.45;;;8.13;100.00
57050;BME280;42935;50.966;16.992;2023-03-25T00:46:37;100463.48;;;7.97;100.00
57050;BME280;42935;50.966;16.992;2023-03-25T00:49:54;100468.93;;;7.76;100.00
57050;BME280;42935;50.966;16.992;2023-03-25T00:53:14;100462.72;;;7.71;100.00
57050;BME280;42935;50.966;16.992;2023-03-25T00:56:37;100450.35;;;7.62;100.00
57050;BME280;42935;50.966;16.992;2023-03-25T00:59:54;100461.58;;;7.44;100.00
57050;BME280;42935;50.966;16.992;2023-03-25T01:03:11;100465.97;;;7.25;100.00
57050;BME280;42935;50.966;16.992;2023-03-25T01:06:33;100433.97;;;7.03;100.00
57050;BME280;42935;50.966;16.992;2023-03-25T01:09:50;100448.84;;;7.14;100.00
57050;BME280;42935;50.966;16.992;2023-03-25T01:13:07;100424.13;;;6.86;100.00
57050;BME280;42935;50.966;16.992;2023-03-25T01:16:28;100449.66;;;6.90;100.00
57050;BME280;42935;50.966;16.992;2023-03-25T01:19:48;100436.59;;;6.66;100.00
57050;BME280;42935;50.966;16.992;2023-03-25T01:23:08;100437.02;;;6.73;100.00
57050;BME280;42935;50.966;16.992;2023-03-25T01:26:27;100449.37;;;6.83;100.00
57050;BME280;42935;50.966;16.992;2023-03-25T01:29:47;100432.14;;;6.81;100.00
57050;BME280;42935;50.966;16.992;2023-03-25T01:33:02;100438.97;;;6.96;100.00
57050;BME280;42935;50.966;16.992;2023-03-25T01:36:15;100435.46;;;6.98;100.00
57050;BME280;42935;50.966;16.992;2023-03-25T01:39:36;100431.13;;;7.03;100.00
57050;BME280;42935;50.966;16.992;2023-03-25T01:43:00;100428.17;;;7.01;100.00
57050;BME280;42935;50.966;16.992;2023-03-25T01:46:16;100425.33;;;6.99;100.00
57050;BME280;42935;50.966;16.992;2023-03-25T01:49:44;100413.40;;;6.94;100.00
57050;BME280;42935;50.966;16.992;2023-03-25T01:53:06;100409.36;;;7.01;100.00
57050;BME280;42935;50.966;16.992;2023-03-25T01:56:34;100390.05;;;7.13;100.00
57050;BME280;42935;50.966;16.992;2023-03-25T01:59:55;100403.86;;;7.23;100.00
57050;BME280;42935;50.966;16.992;2023-03-25T02:03:11;100402.11;;;7.22;100.00
57050;BME280;42935;50.966;16.992;2023-03-25T02:06:39;100390.30;;;7.20;100.00
57050;BME280;42935;50.966;16.992;2023-03-25T02:10:02;100388.05;;;7.17;100.00
57050;BME280;42935;50.966;16.992;2023-03-25T02:13:24;100387.11;;;7.14;100.00
57050;BME280;42935;50.966;16.992;2023-03-25T02:23:53;100400.46;;;6.79;100.00
57050;BME280;42935;50.966;16.992;2023-03-25T02:27:22;100395.01;;;6.80;100.00
57050;BME280;42935;50.966;16.992;2023-03-25T02:45:24;100384.11;;;6.59;100.00
57050;BME280;42935;50.966;16.992;2023-03-25T02:48:39;100392.59;;;6.39;100.00
57050;BME280;42935;50.966;16.992;2023-03-25T02:52:07;100392.16;;;6.33;100.00
57050;BME280;42935;50.966;16.992;2023-03-25T02:55:27;100403.32;;;6.36;100.00
57050;BME280;42935;50.966;16.992;2023-03-25T02:58:49;100395.05;;;6.30;100.00
57050;BME280;42935;50.966;16.992;2023-03-25T03:02:13;100403.38;;;6.32;100.00
57050;BME280;42935;50.966;16.992;2023-03-25T03:05:44;100393.39;;;6.22;100.00
57050;BME280;42935;50.966;16.992;2023-03-25T03:09:19;100403.34;;;6.25;100.00
57050;BME280;42935;50.966;16.992;2023-03-25T03:23:23;100403.51;;;6.23;100.00
57050;BME280;42935;50.966;16.992;2023-03-25T03:26:58;100409.10;;;6.30;100.00
57050;BME280;42935;50.966;16.992;2023-03-25T03:30:27;100408.56;;;6.08;100.00
57050;BME280;42935;50.966;16.992;2023-03-25T03:37:23;100414.20;;;6.38;100.00
57050;BME280;42935;50.966;16.992;2023-03-25T03:40:44;100409.35;;;6.40;100.00
57050;BME280;42935;50.966;16.992;2023-03-25T03:44:13;100412.32;;;6.43;100.00
57050;BME280;42935;50.966;16.992;2023-03-25T03:47:36;100420.77;;;6.41;100.00
57050;BME280;42935;50.966;16.992;2023-03-25T03:51:05;100406.41;;;6.38;100.00
57050;BME280;42935;50.966;16.992;2023-03-25T03:54:29;100416.25;;;6.40;100.00
57050;BME280;42935;50.966;16.992;2023-03-25T03:57:55;100422.85;;;6.32;100.00
57050;BME280;42935;50.966;16.992;2023-03-25T04:04:51;100424.89;;;6.44;100.00
57050;BME280;42935;50.966;16.992;2023-03-25T04:08:14;100421.06;;;6.57;100.00
57050;BME280;42935;50.966;16.992;2023-03-25T04:11:49;100410.98;;;6.51;100.00
57050;BME280;42935;50.966;16.992;2023-03-25T04:15:11;100411.05;;;6.45;100.00
57050;BME280;42935;50.966;16.992;2023-03-25T04:18:28;100423.26;;;6.55;100.00
57050;BME280;42935;50.966;16.992;2023-03-25T04:21:47;100422.20;;;6.59;100.00
57050;BME280;42935;50.966;16.992;2023-03-25T04:25:07;100423.18;;;6.58;100.00
57050;BME280;42935;50.966;16.992;2023-03-25T04:28:23;100414.67;;;6.42;100.00
57050;BME280;42935;50.966;16.992;2023-03-25T04:31:44;100431.55;;;6.47;100.00
57050;BME280;42935;50.966;16.992;2023-03-25T04:35:08;100427.93;;;6.40;100.00
57050;BME280;42935;50.966;16.992;2023-03-25T04:38:22;100429.69;;;6.41;100.00
57050;BME280;42935;50.966;16.992;2023-03-25T04:41:45;100423.20;;;6.29;100.00
57050;BME280;42935;50.966;16.992;2023-03-25T04:45:09;100432.80;;;6.41;100.00
57050;BME280;42935;50.966;16.992;2023-03-25T04:48:33;100431.58;;;6.47;100.00
57050;BME280;42935;50.966;16.992;2023-03-25T04:51:56;100434.82;;;6.56;100.00
57050;BME280;42935;50.966;16.992;2023-03-25T04:55:19;100435.19;;;6.54;100.00
57050;BME280;42935;50.966;16.992;2023-03-25T04:58:36;100438.57;;;6.41;100.00
57050;BME280;42935;50.966;16.992;2023-03-25T05:01:56;100421.63;;;6.25;100.00
57050;BME280;42935;50.966;16.992;2023-03-25T05:05:13;100427.13;;;6.22;100.00
57050;BME280;42935;50.966;16.992;2023-03-25T05:08:36;100435.97;;;6.22;100.00
57050;BME280;42935;50.966;16.992;2023-03-25T05:11:53;100436.18;;;6.29;100.00
57050;BME280;42935;50.966;16.992;2023-03-25T05:15:12;100436.60;;;6.33;100.00
57050;BME280;42935;50.966;16.992;2023-03-25T05:18:41;100436.37;;;6.30;100.00
57050;BME280;42935;50.966;16.992;2023-03-25T05:21:58;100432.41;;;6.28;100.00
57050;BME280;42935;50.966;16.992;2023-03-25T05:25:15;100427.84;;;6.31;100.00
57050;BME280;42935;50.966;16.992;2023-03-25T05:28:42;100422.30;;;6.52;100.00
57050;BME280;42935;50.966;16.992;2023-03-25T05:31:59;100419.59;;;6.58;100.00
57050;BME280;42935;50.966;16.992;2023-03-25T05:35:19;100408.74;;;6.60;100.00
57050;BME280;42935;50.966;16.992;2023-03-25T05:38:40;100425.89;;;6.68;100.00
57050;BME280;42935;50.966;16.992;2023-03-25T05:41:58;100420.18;;;6.71;100.00
57050;BME280;42935;50.966;16.992;2023-03-25T05:45:21;100403.25;;;6.73;100.00
57050;BME280;42935;50.966;16.992;2023-03-25T05:48:42;100420.21;;;6.95;100.00
57050;BME280;42935;50.966;16.992;2023-03-25T05:52:01;100403.47;;;7.11;100.00
57050;BME280;42935;50.966;16.992;2023-03-25T05:55:20;100423.38;;;7.47;100.00
57050;BME280;42935;50.966;16.992;2023-03-25T05:58:38;100427.57;;;7.56;100.00
57050;BME280;42935;50.966;16.992;2023-03-25T06:01:58;100437.14;;;7.69;100.00
57050;BME280;42935;50.966;16.992;2023-03-25T06:05:21;100430.08;;;7.77;100.00
57050;BME280;42935;50.966;16.992;2023-03-25T06:08:36;100441.36;;;7.91;100.00
57050;BME280;42935;50.966;16.992;2023-03-25T06:11:56;100445.56;;;7.92;100.00
57050;BME280;42935;50.966;16.992;2023-03-25T06:15:19;100428.52;;;8.01;100.00
57050;BME280;42935;50.966;16.992;2023-03-25T06:18:53;100432.59;;;8.31;100.00
57050;BME280;42935;50.966;16.992;2023-03-25T06:22:19;100429.16;;;8.60;100.00
57050;BME280;42935;50.966;16.992;2023-03-25T06:25:39;100434.55;;;8.89;100.00
57050;BME280;42935;50.966;16.992;2023-03-25T06:28:56;100420.09;;;9.13;100.00
57050;BME280;42935;50.966;16.992;2023-03-25T06:32:17;100424.73;;;9.45;100.00
57050;BME280;42935;50.966;16.992;2023-03-25T06:35:34;100422.88;;;9.69;100.00
57050;BME280;42935;50.966;16.992;2023-03-25T06:38:55;100438.21;;;9.94;100.00
57050;BME280;42935;50.966;16.992;2023-03-25T06:42:15;100426.73;;;10.03;100.00
57050;BME280;42935;50.966;16.992;2023-03-25T06:45:35;100423.91;;;9.96;100.00
57050;BME280;42935;50.966;16.992;2023-03-25T06:48:51;100403.94;;;9.73;100.00
57050;BME280;42935;50.966;16.992;2023-03-25T06:52:11;100423.60;;;9.79;100.00
57050;BME280;42935;50.966;16.992;2023-03-25T06:55:31;100394.63;;;9.59;100.00
57050;BME280;42935;50.966;16.992;2023-03-25T06:58:50;100398.12;;;9.54;100.00
57050;BME280;42935;50.966;16.992;2023-03-25T07:02:13;100424.06;;;9.62;100.00
57050;BME280;42935;50.966;16.992;2023-03-25T07:05:32;100433.05;;;9.55;100.00
57050;BME280;42935;50.966;16.992;2023-03-25T07:08:52;100429.55;;;9.57;100.00
57050;BME280;42935;50.966;16.992;2023-03-25T07:12:11;100433.52;;;9.50;100.00
57050;BME280;42935;50.966;16.992;2023-03-25T07:15:28;100425.59;;;9.43;100.00
57050;BME280;42935;50.966;16.992;2023-03-25T07:18:49;100429.30;;;9.50;100.00
57050;BME280;42935;50.966;16.992;2023-03-25T07:22:07;100424.32;;;9.48;100.00
57050;BME280;42935;50.966;16.992;2023-03-25T07:25:26;100445.46;;;9.64;100.00
57050;BME280;42935;50.966;16.992;2023-03-25T07:28:43;100428.96;;;9.67;100.00
57050;BME280;42935;50.966;16.992;2023-03-25T07:32:04;100438.85;;;9.83;100.00
57050;BME280;42935;50.966;16.992;2023-03-25T07:35:21;100435.98;;;9.89;100.00
57050;BME280;42935;50.966;16.992;2023-03-25T07:38:37;100432.53;;;9.99;100.00
57050;BME280;42935;50.966;16.992;2023-03-25T07:41:57;100445.35;;;10.15;100.00
57050;BME280;42935;50.966;16.992;2023-03-25T07:45:11;100451.95;;;10.29;100.00
57050;BME280;42935;50.966;16.992;2023-03-25T07:48:29;100432.87;;;10.47;100.00
57050;BME280;42935;50.966;16.992;2023-03-25T07:51:45;100435.41;;;10.80;98.48
57050;BME280;42935;50.966;16.992;2023-03-25T07:55:08;100430.25;;;11.01;98.21
57050;BME280;42935;50.966;16.992;2023-03-25T07:58:25;100412.64;;;10.86;92.18
57050;BME280;42935;50.966;16.992;2023-03-25T08:01:45;100427.16;;;11.21;91.11
57050;BME280;42935;50.966;16.992;2023-03-25T08:05:06;100426.08;;;11.35;92.81
57050;BME280;42935;50.966;16.992;2023-03-25T08:08:26;100414.07;;;11.23;89.02
57050;BME280;42935;50.966;16.992;2023-03-25T08:11:47;100425.01;;;11.40;86.20
57050;BME280;42935;50.966;16.992;2023-03-25T08:15:04;100427.84;;;11.81;81.08
57050;BME280;42935;50.966;16.992;2023-03-25T08:18:24;100431.62;;;11.80;82.22
57050;BME280;42935;50.966;16.992;2023-03-25T08:21:44;100431.51;;;11.76;81.31
57050;BME280;42935;50.966;16.992;2023-03-25T08:25:01;100426.60;;;12.10;85.59
57050;BME280;42935;50.966;16.992;2023-03-25T08:28:20;100414.22;;;12.30;80.48
57050;BME280;42935;50.966;16.992;2023-03-25T08:31:41;100420.32;;;12.68;80.52
57050;BME280;42935;50.966;16.992;2023-03-25T08:35:06;100423.16;;;12.62;78.15
57050;BME280;42935;50.966;16.992;2023-03-25T08:38:26;100423.08;;;12.49;76.39
57050;BME280;42935;50.966;16.992;2023-03-25T08:41:47;100428.77;;;12.64;79.13
57050;BME280;42935;50.966;16.992;2023-03-25T08:45:07;100427.90;;;12.43;77.64
57050;BME280;42935;50.966;16.992;2023-03-25T08:48:27;100418.66;;;11.77;77.66
57050;BME280;42935;50.966;16.992;2023-03-25T08:51:41;100428.23;;;11.56;77.01
57050;BME280;42935;50.966;16.992;2023-03-25T08:55:01;100428.62;;;11.56;76.14
57050;BME280;42935;50.966;16.992;2023-03-25T08:58:21;100428.31;;;11.66;76.73
57050;BME280;42935;50.966;16.992;2023-03-25T09:01:40;100420.27;;;11.63;75.56
57050;BME280;42935;50.966;16.992;2023-03-25T09:04:58;100421.84;;;11.77;77.02
57050;BME280;42935;50.966;16.992;2023-03-25T09:08:19;100426.09;;;11.91;76.99
57050;BME280;42935;50.966;16.992;2023-03-25T09:11:38;100406.93;;;11.81;75.70
57050;BME280;42935;50.966;16.992;2023-03-25T09:14:56;100424.88;;;11.95;74.78
57050;BME280;42935;50.966;16.992;2023-03-25T09:18:11;100422.84;;;12.19;75.62
57050;BME280;42935;50.966;16.992;2023-03-25T09:21:30;100419.84;;;11.77;73.02
57050;BME280;42935;50.966;16.992;2023-03-25T09:24:47;100417.88;;;11.92;73.61
57050;BME280;42935;50.966;16.992;2023-03-25T09:28:04;100424.00;;;11.98;72.65
57050;BME280;42935;50.966;16.992;2023-03-25T09:31:21;100422.84;;;11.97;72.34
57050;BME280;42935;50.966;16.992;2023-03-25T09:34:38;100422.70;;;11.91;72.19
57050;BME280;42935;50.966;16.992;2023-03-25T09:37:55;100410.52;;;12.08;72.11
57050;BME280;42935;50.966;16.992;2023-03-25T09:41:28;100412.05;;;12.21;71.07
57050;BME280;42935;50.966;16.992;2023-03-25T09:44:54;100418.69;;;12.77;71.12
57050;BME280;42935;50.966;16.992;2023-03-25T09:51:46;100423.07;;;12.62;68.92
57050;BME280;42935;50.966;16.992;2023-03-25T09:55:10;100411.13;;;13.22;69.00
57050;BME280;42935;50.966;16.992;2023-03-25T09:58:43;100423.91;;;13.32;66.82
57050;BME280;42935;50.966;16.992;2023-03-25T10:19:42;100390.56;;;12.61;68.63
57050;BME280;42935;50.966;16.992;2023-03-25T10:30:17;100406.04;;;12.32;69.08
57050;BME280;42935;50.966;16.992;2023-03-25T10:33:40;100401.48;;;12.62;66.75
57050;BME280;42935;50.966;16.992;2023-03-25T10:37:10;100401.82;;;13.01;67.10
57050;BME280;42935;50.966;16.992;2023-03-25T10:40:34;100386.07;;;12.15;66.66
57050;BME280;42935;50.966;16.992;2023-03-25T10:43:54;100397.37;;;12.23;67.42
57050;BME280;42935;50.966;16.992;2023-03-25T10:47:18;100396.37;;;12.16;64.85
57050;BME280;42935;50.966;16.992;2023-03-25T10:50:34;100388.37;;;12.71;64.84
57050;BME280;42935;50.966;16.992;2023-03-25T10:53:55;100386.27;;;12.17;62.04
57050;BME280;42935;50.966;16.992;2023-03-25T10:57:22;100374.04;;;12.42;62.70
57050;BME280;42935;50.966;16.992;2023-03-25T11:00:43;100374.53;;;12.58;60.56
57050;BME280;42935;50.966;16.992;2023-03-25T11:04:06;100364.00;;;12.55;58.49
57050;BME280;42935;50.966;16.992;2023-03-25T11:10:55;100363.70;;;12.68;61.33
57050;BME280;42935;50.966;16.992;2023-03-25T11:14:24;100359.28;;;12.73;58.35
57050;BME280;42935;50.966;16.992;2023-03-25T11:17:43;100352.35;;;12.69;59.03
57050;BME280;42935;50.966;16.992;2023-03-25T11:21:07;100338.08;;;12.32;58.94
57050;BME280;42935;50.966;16.992;2023-03-25T11:24:32;100348.86;;;12.32;59.33
57050;BME280;42935;50.966;16.992;2023-03-25T11:27:58;100351.23;;;12.33;59.09
57050;BME280;42935;50.966;16.992;2023-03-25T11:31:24;100347.09;;;12.38;58.10
57050;BME280;42935;50.966;16.992;2023-03-25T11:34:47;100348.73;;;12.51;57.25
57050;BME280;42935;50.966;16.992;2023-03-25T11:38:15;100344.52;;;12.74;58.33
57050;BME280;42935;50.966;16.992;2023-03-25T11:41:37;100340.49;;;12.85;58.53
57050;BME280;42935;50.966;16.992;2023-03-25T11:44:58;100352.63;;;12.70;58.79
57050;BME280;42935;50.966;16.992;2023-03-25T11:48:27;100356.36;;;12.36;58.20
57050;BME280;42935;50.966;16.992;2023-03-25T11:51:59;100372.95;;;12.10;58.13
57050;BME280;42935;50.966;16.992;2023-03-25T11:55:27;100372.47;;;11.91;63.04
57050;BME280;42935;50.966;16.992;2023-03-25T11:58:45;100380.95;;;11.84;64.68
57050;BME280;42935;50.966;16.992;2023-03-25T12:05:33;100402.87;;;10.99;72.19
57050;BME280;42935;50.966;16.992;2023-03-25T12:08:58;100426.55;;;10.34;78.47
57050;BME280;42935;50.966;16.992;2023-03-25T12:26:26;100454.49;;;9.14;98.04
57050;BME280;42935;50.966;16.992;2023-03-25T12:33:32;100447.81;;;9.25;97.67
57050;BME280;42935;50.966;16.992;2023-03-25T12:37:00;100448.81;;;9.52;92.34
57050;BME280;42935;50.966;16.992;2023-03-25T12:40:31;100446.52;;;9.60;90.43
57050;BME280;42935;50.966;16.992;2023-03-25T12:43:58;100423.84;;;9.97;84.66
57050;BME280;42935;50.966;16.992;2023-03-25T12:47:33;100411.50;;;10.23;81.16
57050;BME280;42935;50.966;16.992;2023-03-25T12:51:04;100430.25;;;11.31;78.74
57050;BME280;42935;50.966;16.992;2023-03-25T12:54:35;100431.07;;;11.41;75.07
57050;BME280;42935;50.966;16.992;2023-03-25T13:01:29;100441.05;;;11.32;78.66
57050;BME280;42935;50.966;16.992;2023-03-25T13:05:02;100431.74;;;11.52;79.24
57050;BME280;42935;50.966;16.992;2023-03-25T13:11:56;100433.41;;;11.38;79.34
57050;BME280;42935;50.966;16.992;2023-03-25T13:15:31;100424.34;;;11.50;76.75
57050;BME280;42935;50.966;16.992;2023-03-25T13:22:31;100411.70;;;10.62;76.74
57050;BME280;42935;50.966;16.992;2023-03-25T13:26:23;100414.00;;;11.13;76.76
57050;BME280;42935;50.966;16.992;2023-03-25T13:29:36;100420.35;;;10.62;77.70
57050;BME280;42935;50.966;16.992;2023-03-25T13:33:05;100410.41;;;10.90;77.37
57050;BME280;42935;50.966;16.992;2023-03-25T13:36:33;100409.22;;;10.98;77.11
57050;BME280;42935;50.966;16.992;2023-03-25T13:50:31;100441.59;;;9.69;83.31
57050;BME280;42935;50.966;16.992;2023-03-25T14:08:08;100389.29;;;10.85;72.47
57050;BME280;42935;50.966;16.992;2023-03-25T14:15:03;100364.11;;;12.98;68.69
57050;BME280;42935;50.966;16.992;2023-03-25T14:18:27;100380.23;;;12.77;66.78
57050;BME280;42935;50.966;16.992;2023-03-25T14:21:51;100377.13;;;12.97;67.06
57050;BME280;42935;50.966;16.992;2023-03-25T14:28:43;100390.48;;;12.49;61.55
57050;BME280;42935;50.966;16.992;2023-03-25T14:42:57;100367.38;;;13.93;63.72
57050;BME280;42935;50.966;16.992;2023-03-25T14:46:14;100377.08;;;12.70;64.69
57050;BME280;42935;50.966;16.992;2023-03-25T14:53:10;100388.63;;;11.45;67.59
57050;BME280;42935;50.966;16.992;2023-03-25T14:56:47;100380.24;;;11.37;69.30
57050;BME280;42935;50.966;16.992;2023-03-25T15:00:00;100376.09;;;11.12;71.88
57050;BME280;42935;50.966;16.992;2023-03-25T15:03:37;100384.20;;;11.11;69.53
57050;BME280;42935;50.966;16.992;2023-03-25T15:06:58;100399.93;;;10.73;70.59
57050;BME280;42935;50.966;16.992;2023-03-25T15:13:45;100410.05;;;10.51;73.18
57050;BME280;42935;50.966;16.992;2023-03-25T15:17:12;100421.50;;;10.35;75.11
57050;BME280;42935;50.966;16.992;2023-03-25T15:20:34;100427.33;;;10.28;79.09
57050;BME280;42935;50.966;16.992;2023-03-25T15:24:08;100463.34;;;9.18;98.36
57050;BME280;42935;50.966;16.992;2023-03-25T15:38:11;100502.59;;;7.59;100.00
57050;BME280;42935;50.966;16.992;2023-03-25T15:41:39;100462.19;;;7.57;100.00
57050;BME280;42935;50.966;16.992;2023-03-25T15:48:47;100419.04;;;7.62;100.00
57050;BME280;42935;50.966;16.992;2023-03-25T15:55:45;100407.99;;;9.15;100.00
57050;BME280;42935;50.966;16.992;2023-03-25T15:59:12;100379.01;;;9.71;100.00
57050;BME280;42935;50.966;16.992;2023-03-25T16:02:34;100368.50;;;10.51;100.00
57050;BME280;42935;50.966;16.992;2023-03-25T16:05:57;100350.27;;;10.66;100.00
57050;BME280;42935;50.966;16.992;2023-03-25T16:09:23;100367.59;;;10.49;98.73
57050;BME280;42935;50.966;16.992;2023-03-25T16:12:48;100370.13;;;9.76;100.00
57050;BME280;42935;50.966;16.992;2023-03-25T16:16:13;100362.13;;;9.38;100.00
57050;BME280;42935;50.966;16.992;2023-03-25T16:23:18;100371.98;;;9.69;100.00
57050;BME280;42935;50.966;16.992;2023-03-25T16:26:44;100367.93;;;8.98;100.00
57050;BME280;42935;50.966;16.992;2023-03-25T16:30:16;100357.30;;;8.59;100.00
57050;BME280;42935;50.966;16.992;2023-03-25T16:33:37;100368.34;;;8.55;100.00
57050;BME280;42935;50.966;16.992;2023-03-25T16:36:59;100363.70;;;8.25;100.00
57050;BME280;42935;50.966;16.992;2023-03-25T16:40:41;100374.05;;;8.28;100.00
57050;BME280;42935;50.966;16.992;2023-03-25T16:43:47;100321.13;;;7.85;100.00
57050;BME280;42935;50.966;16.992;2023-03-25T16:47:04;100356.67;;;8.14;100.00
57050;BME280;42935;50.966;16.992;2023-03-25T16:50:25;100360.61;;;8.24;100.00
57050;BME280;42935;50.966;16.992;2023-03-25T16:53:43;100373.49;;;8.15;100.00
57050;BME280;42935;50.966;16.992;2023-03-25T16:57:07;100362.88;;;8.02;100.00
57050;BME280;42935;50.966;16.992;2023-03-25T17:00:36;100379.56;;;8.02;100.00
57050;BME280;42935;50.966;16.992;2023-03-25T17:07:27;100379.56;;;7.83;100.00
57050;BME280;42935;50.966;16.992;2023-03-25T17:10:50;100379.23;;;7.83;100.00
57050;BME280;42935;50.966;16.992;2023-03-25T17:14:23;100373.44;;;7.64;100.00
57050;BME280;42935;50.966;16.992;2023-03-25T17:21:10;100381.31;;;7.26;100.00
57050;BME280;42935;50.966;16.992;2023-03-25T17:24:36;100386.57;;;6.65;100.00
57050;BME280;42935;50.966;16.992;2023-03-25T17:27:59;100380.60;;;6.48;100.00
57050;BME280;42935;50.966;16.992;2023-03-25T17:31:33;100381.39;;;6.36;100.00
57050;BME280;42935;50.966;16.992;2023-03-25T17:35:03;100378.24;;;6.33;100.00
57050;BME280;42935;50.966;16.992;2023-03-25T17:38:34;100391.83;;;6.35;100.00
57050;BME280;42935;50.966;16.992;2023-03-25T17:45:24;100389.02;;;6.17;100.00
57050;BME280;42935;50.966;16.992;2023-03-25T17:48:54;100388.95;;;5.98;100.00
57050;BME280;42935;50.966;16.992;2023-03-25T17:52:13;100394.03;;;5.84;100.00
57050;BME280;42935;50.966;16.992;2023-03-25T17:55:30;100391.18;;;5.85;100.00
57050;BME280;42935;50.966;16.992;2023-03-25T17:58:47;100391.26;;;5.82;100.00
57050;BME280;42935;50.966;16.992;2023-03-25T18:02:15;100384.71;;;5.88;100.00
57050;BME280;42935;50.966;16.992;2023-03-25T18:05:32;100336.98;;;5.43;100.00
57050;BME280;42935;50.966;16.992;2023-03-25T18:08:51;100382.30;;;5.68;100.00
57050;BME280;42935;50.966;16.992;2023-03-25T18:12:10;100381.44;;;5.78;100.00
57050;BME280;42935;50.966;16.992;2023-03-25T18:15:27;100398.23;;;5.82;100.00
57050;BME280;42935;50.966;16.992;2023-03-25T18:18:48;100403.45;;;5.77;100.00
57050;BME280;42935;50.966;16.992;2023-03-25T18:22:11;100400.91;;;5.67;100.00
57050;BME280;42935;50.966;16.992;2023-03-25T18:25:32;100397.96;;;5.69;100.00
57050;BME280;42935;50.966;16.992;2023-03-25T18:28:52;100408.98;;;5.77;100.00
57050;BME280;42935;50.966;16.992;2023-03-25T18:32:11;100402.58;;;5.72;100.00
57050;BME280;42935;50.966;16.992;2023-03-25T18:35:32;100416.50;;;5.79;100.00
57050;BME280;42935;50.966;16.992;2023-03-25T18:38:54;100403.42;;;5.69;100.00
57050;BME280;42935;50.966;16.992;2023-03-25T18:42:11;100417.99;;;6.27;100.00
57050;BME280;42935;50.966;16.992;2023-03-25T18:45:31;100429.07;;;6.70;100.00
57050;BME280;42935;50.966;16.992;2023-03-25T18:48:51;100441.15;;;7.26;100.00
57050;BME280;42935;50.966;16.992;2023-03-25T18:52:12;100441.73;;;7.42;100.00
57050;BME280;42935;50.966;16.992;2023-03-25T18:55:34;100441.70;;;7.50;100.00
57050;BME280;42935;50.966;16.992;2023-03-25T18:58:52;100452.41;;;7.60;100.00
57050;BME280;42935;50.966;16.992;2023-03-25T19:02:15;100450.23;;;7.54;100.00
57050;BME280;42935;50.966;16.992;2023-03-25T19:05:30;100446.41;;;7.45;100.00
57050;BME280;42935;50.966;16.992;2023-03-25T19:08:50;100449.03;;;7.37;100.00
57050;BME280;42935;50.966;16.992;2023-03-25T19:12:10;100434.25;;;7.29;100.00
57050;BME280;42935;50.966;16.992;2023-03-25T19:15:28;100437.53;;;7.23;100.00
57050;BME280;42935;50.966;16.992;2023-03-25T19:18:53;100441.14;;;7.14;100.00
57050;BME280;42935;50.966;16.992;2023-03-25T19:22:13;100454.52;;;7.21;100.00
57050;BME280;42935;50.966;16.992;2023-03-25T19:25:34;100447.57;;;7.13;100.00
57050;BME280;42935;50.966;16.992;2023-03-25T19:28:54;100456.27;;;7.17;100.00
57050;BME280;42935;50.966;16.992;2023-03-25T19:32:16;100444.72;;;7.08;100.00
57050;BME280;42935;50.966;16.992;2023-03-25T19:35:32;100460.02;;;7.23;100.00
57050;BME280;42935;50.966;16.992;2023-03-25T19:38:56;100459.24;;;7.12;100.00
57050;BME280;42935;50.966;16.992;2023-03-25T19:42:22;100443.80;;;7.09;100.00
57050;BME280;42935;50.966;16.992;2023-03-25T19:45:41;100456.19;;;7.09;100.00
57050;BME280;42935;50.966;16.992;2023-03-25T19:48:58;100454.41;;;7.07;100.00
57050;BME280;42935;50.966;16.992;2023-03-25T19:52:13;100436.70;;;6.96;100.00
57050;BME280;42935;50.966;16.992;2023-03-25T19:55:28;100446.32;;;6.98;100.00
57050;BME280;42935;50.966;16.992;2023-03-25T19:58:45;100453.19;;;7.03;100.00
57050;BME280;42935;50.966;16.992;2023-03-25T20:02:00;100453.59;;;7.07;100.00
57050;BME280;42935;50.966;16.992;2023-03-25T20:05:21;100454.51;;;6.87;100.00
57050;BME280;42935;50.966;16.992;2023-03-25T20:08:42;100446.50;;;6.83;100.00
57050;BME280;42935;50.966;16.992;2023-03-25T20:12:06;100450.74;;;6.75;100.00
57050;BME280;42935;50.966;16.992;2023-03-25T20:15:24;100445.64;;;6.58;100.00
57050;BME280;42935;50.966;16.992;2023-03-25T20:18:45;100469.85;;;6.53;100.00
57050;BME280;42935;50.966;16.992;2023-03-25T20:22:08;100467.09;;;6.59;100.00
57050;BME280;42935;50.966;16.992;2023-03-25T20:25:26;100464.99;;;6.47;100.00